createdAt,value
2022-12-04T00:01:23.847Z,11.11
2022-12-04T00:03:56.615Z,11.03
2022-12-04T00:06:25.079Z,11.10
2022-12-04T00:08:53.670Z,11.16
2022-12-04T00:11:24.540Z,11.26
2022-12-04T00:13:52.302Z,11.15
2022-12-04T00:16:23.283Z,11.13
2022-12-04T00:18:51.919Z,11.08
2022-12-04T00:21:20.579Z,10.97
2022-12-04T00:23:49.019Z,11.04
2022-12-04T00:26:23.234Z,11.02
2022-12-04T00:28:51.290Z,11.09
2022-12-04T00:31:23.452Z,11.05
2022-12-04T00:33:52.578Z,11.10
2022-12-04T00:36:22.818Z,11.16
2022-12-04T00:38:50.950Z,11.14
2022-12-04T00:41:21.876Z,11.23
2022-12-04T00:43:49.655Z,11.22
2022-12-04T00:46:19.566Z,11.25
2022-12-04T00:48:47.480Z,11.22
2022-12-04T00:51:18.724Z,11.16
2022-12-04T00:53:46.989Z,11.18
2022-12-04T00:56:18.763Z,11.12
2022-12-04T00:58:47.839Z,11.12
2022-12-04T01:01:19.055Z,11.09
2022-12-04T01:03:46.979Z,11.17
2022-12-04T01:06:32.018Z,11.23
2022-12-04T01:09:01.139Z,11.25
2022-12-04T01:11:29.948Z,11.32
2022-12-04T01:13:59.014Z,11.39
2022-12-04T01:16:32.700Z,11.33
2022-12-04T01:19:00.459Z,11.22
2022-12-04T01:21:28.855Z,11.31
2022-12-04T01:23:58.140Z,11.32
2022-12-04T01:26:26.260Z,11.27
2022-12-04T01:28:53.976Z,11.34
2022-12-04T01:31:22.665Z,11.29
2022-12-04T01:33:51.667Z,11.33
2022-12-04T01:36:23.525Z,11.35
2022-12-04T01:38:51.544Z,11.45
2022-12-04T01:41:23.832Z,11.48
2022-12-04T01:44:26.918Z,11.51
2022-12-04T01:47:00.373Z,11.46
2022-12-04T01:49:39.662Z,11.54
2022-12-04T01:52:16.077Z,11.57
2022-12-04T01:54:47.508Z,11.54
2022-12-04T01:57:20.797Z,11.62
2022-12-04T01:59:54.807Z,11.68
2022-12-04T02:02:29.387Z,11.73
2022-12-04T02:04:57.095Z,11.77
2022-12-04T02:07:25.019Z,11.83
2022-12-04T02:09:56.207Z,11.81
2022-12-04T02:12:32.829Z,11.85
2022-12-04T02:15:22.872Z,11.86
2022-12-04T02:18:38.426Z,11.86
2022-12-04T02:21:14.956Z,11.92
2022-12-04T02:23:59.999Z,12.01
2022-12-04T02:26:43.649Z,12.06
2022-12-04T02:29:31.698Z,12.07
2022-12-04T02:32:12.940Z,12.03
2022-12-04T02:34:57.419Z,12.15
2022-12-04T02:37:33.344Z,12.15
2022-12-04T02:40:12.835Z,12.26
2022-12-04T02:42:54.263Z,12.25
2022-12-04T02:45:27.573Z,12.24
2022-12-04T02:47:57.214Z,12.22
2022-12-04T02:50:26.506Z,12.25
2022-12-04T02:53:09.596Z,12.29
2022-12-04T02:55:45.553Z,12.33
2022-12-04T02:58:26.375Z,12.47
2022-12-04T03:00:55.815Z,12.40
2022-12-04T03:03:29.995Z,12.40
2022-12-04T03:06:07.333Z,12.47
2022-12-04T03:08:42.717Z,12.44
2022-12-04T03:11:11.091Z,12.41
2022-12-04T03:13:50.682Z,12.41
2022-12-04T03:16:30.723Z,12.40
2022-12-04T03:19:14.110Z,12.41
2022-12-04T03:21:48.269Z,12.38
2022-12-04T03:24:27.792Z,12.24
2022-12-04T03:27:21.385Z,12.33
2022-12-04T03:29:51.941Z,12.38
2022-12-04T03:32:30.304Z,12.36
2022-12-04T03:35:07.390Z,12.33
2022-12-04T03:37:41.324Z,12.45
2022-12-04T03:40:24.754Z,12.40
2022-12-04T03:43:03.871Z,12.39
2022-12-04T03:45:53.384Z,12.46
2022-12-04T03:48:26.437Z,12.42
2022-12-04T03:51:13.514Z,12.33
2022-12-04T03:53:58.214Z,12.20
2022-12-04T03:56:31.955Z,12.17
2022-12-04T03:59:07.014Z,12.17
2022-12-04T04:01:40.569Z,12.19
2022-12-04T04:04:12.713Z,12.16
2022-12-04T04:06:46.949Z,12.12
2022-12-04T04:09:19.308Z,12.13
2022-12-04T04:12:02.920Z,12.24
2022-12-04T04:14:54.967Z,12.24
2022-12-04T04:17:46.117Z,12.22
2022-12-04T04:20:38.776Z,12.17
2022-12-04T04:23:29.249Z,12.18
2022-12-04T04:26:03.037Z,12.24
2022-12-04T04:28:41.158Z,12.17
2022-12-04T04:31:25.338Z,12.07
2022-12-04T04:34:23.349Z,11.99
2022-12-04T04:36:50.820Z,11.81
2022-12-04T04:39:40.000Z,11.60
2022-12-04T04:42:24.745Z,11.57
2022-12-04T04:45:14.306Z,11.45
2022-12-04T04:47:57.523Z,11.42
2022-12-04T04:50:25.713Z,11.45
2022-12-04T04:52:59.682Z,11.45
2022-12-04T04:55:29.617Z,11.43
2022-12-04T04:58:07.682Z,11.39
2022-12-04T05:00:36.093Z,11.27
2022-12-04T05:03:03.864Z,11.34
2022-12-04T05:05:31.695Z,11.12
2022-12-04T05:07:59.652Z,11.02
2022-12-04T05:10:27.287Z,10.94
2022-12-04T05:12:55.838Z,10.98
2022-12-04T05:15:23.371Z,10.77
2022-12-04T05:17:51.332Z,10.80
2022-12-04T05:20:19.390Z,10.82
2022-12-04T05:22:47.446Z,10.84
2022-12-04T05:25:15.515Z,10.89
2022-12-04T05:27:43.297Z,10.97
2022-12-04T05:30:12.246Z,11.03
2022-12-04T05:32:40.530Z,11.06
2022-12-04T05:35:11.327Z,10.97
2022-12-04T05:37:40.687Z,11.08
2022-12-04T05:40:09.427Z,11.09
2022-12-04T05:42:36.977Z,11.18
2022-12-04T05:45:05.295Z,11.26
2022-12-04T05:47:37.641Z,11.15
2022-12-04T05:50:06.199Z,11.20
2022-12-04T05:52:33.938Z,11.26
2022-12-04T05:55:02.606Z,11.25
2022-12-04T05:57:30.329Z,11.04
2022-12-04T05:59:58.015Z,11.12
2022-12-04T06:02:25.796Z,11.08
2022-12-04T06:04:53.327Z,11.09
2022-12-04T06:07:21.839Z,11.04
2022-12-04T06:09:49.715Z,11.02
2022-12-04T06:12:17.227Z,11.04
2022-12-04T06:14:45.640Z,10.91
2022-12-04T06:17:13.613Z,10.99
2022-12-04T06:19:41.943Z,10.93
2022-12-04T06:22:09.459Z,10.95
2022-12-04T06:24:37.114Z,10.98
2022-12-04T06:27:26.882Z,11.00
2022-12-04T06:29:53.063Z,11.02
2022-12-04T06:32:22.047Z,10.90
2022-12-04T06:34:54.221Z,10.96
2022-12-04T06:37:24.550Z,11.00
2022-12-04T06:39:52.219Z,11.11
2022-12-04T06:42:20.204Z,11.06
2022-12-04T06:44:49.140Z,11.17
2022-12-04T06:47:17.172Z,11.16
2022-12-04T06:49:46.170Z,11.18
2022-12-04T06:52:13.912Z,11.20
2022-12-04T06:54:41.601Z,11.25
2022-12-04T06:57:09.532Z,11.20
2022-12-04T06:59:37.191Z,11.20
2022-12-04T07:02:04.848Z,11.24
2022-12-04T07:04:32.799Z,11.30
2022-12-04T07:07:01.086Z,11.35
2022-12-04T07:09:28.617Z,11.39
2022-12-04T07:11:56.317Z,11.29
2022-12-04T07:14:23.863Z,11.35
2022-12-04T07:16:51.599Z,11.39
2022-12-04T07:19:19.194Z,11.45
2022-12-04T07:21:47.031Z,11.55
2022-12-04T07:24:17.593Z,11.57
2022-12-04T07:26:45.604Z,11.56
2022-12-04T07:29:14.222Z,11.68
2022-12-04T07:31:41.890Z,11.72
2022-12-04T07:34:09.427Z,11.76
2022-12-04T07:36:36.981Z,11.76
2022-12-04T07:39:04.739Z,10.93
2022-12-04T07:41:32.345Z,10.45
2022-12-04T07:44:06.358Z,10.21
2022-12-04T07:46:34.521Z,10.06
2022-12-04T07:49:02.766Z,9.97
2022-12-04T07:51:30.426Z,9.98
2022-12-04T07:54:02.644Z,9.83
2022-12-04T07:56:31.107Z,9.72
2022-12-04T07:59:00.258Z,9.84
2022-12-04T08:01:28.199Z,9.91
2022-12-04T08:03:57.940Z,9.94
2022-12-04T08:06:29.726Z,9.87
2022-12-04T08:09:03.510Z,9.87
2022-12-04T08:11:34.278Z,9.49
2022-12-04T08:14:05.707Z,9.47
2022-12-04T08:16:34.421Z,9.52
2022-12-04T08:19:02.152Z,9.42
2022-12-04T08:21:31.576Z,9.40
2022-12-04T08:24:00.913Z,9.41
2022-12-04T08:26:30.986Z,9.50
2022-12-04T08:29:01.391Z,9.41
2022-12-04T08:31:30.908Z,9.29
2022-12-04T08:34:01.880Z,9.24
2022-12-04T08:36:30.571Z,9.27
2022-12-04T08:38:58.182Z,9.29
2022-12-04T08:41:26.896Z,9.34
2022-12-04T08:43:58.121Z,9.26
2022-12-04T08:46:27.635Z,9.28
2022-12-04T08:48:55.859Z,9.32
2022-12-04T08:51:27.399Z,9.23
2022-12-04T08:54:01.467Z,9.13
2022-12-04T08:56:30.992Z,9.14
2022-12-04T08:58:59.466Z,9.21
2022-12-04T09:01:29.055Z,9.25
2022-12-04T09:04:00.214Z,9.40
2022-12-04T09:06:30.597Z,9.48
2022-12-04T09:08:58.596Z,9.61
2022-12-04T09:11:28.322Z,9.66
2022-12-04T09:13:56.354Z,9.66
2022-12-04T09:16:26.091Z,9.63
2022-12-04T09:18:57.528Z,9.58
2022-12-04T09:21:28.054Z,9.55
2022-12-04T09:23:55.973Z,9.72
2022-12-04T09:26:29.886Z,9.68
2022-12-04T09:28:59.521Z,9.76
2022-12-04T09:31:27.951Z,9.68
2022-12-04T09:33:58.133Z,9.58
2022-12-04T09:36:25.898Z,9.53
2022-12-04T09:38:54.885Z,9.57
2022-12-04T09:41:32.177Z,9.71
2022-12-04T09:44:06.444Z,9.97
2022-12-04T09:46:51.738Z,10.03
2022-12-04T09:49:29.142Z,9.66
2022-12-04T09:52:00.447Z,9.80
2022-12-04T09:54:35.177Z,9.86
2022-12-04T09:57:12.198Z,9.65
2022-12-04T09:59:40.358Z,9.75
2022-12-04T10:02:29.814Z,9.90
2022-12-04T10:04:58.362Z,9.85
2022-12-04T10:07:47.657Z,9.99
2022-12-04T10:10:36.076Z,9.94
2022-12-04T10:13:21.898Z,9.82
2022-12-04T10:16:26.780Z,9.77
2022-12-04T10:19:02.217Z,9.81
2022-12-04T10:21:47.885Z,9.88
2022-12-04T10:24:23.884Z,9.97
2022-12-04T10:26:53.677Z,9.95
2022-12-04T10:29:27.258Z,9.96
2022-12-04T10:32:00.348Z,10.07
2022-12-04T10:34:32.277Z,10.18
2022-12-04T10:37:06.605Z,10.20
2022-12-04T10:39:42.906Z,10.24
2022-12-04T10:42:36.002Z,10.10
2022-12-04T10:45:05.738Z,10.04
2022-12-04T10:47:34.928Z,10.08
2022-12-04T10:50:13.658Z,10.24
2022-12-04T10:52:41.199Z,10.30
2022-12-04T10:55:09.631Z,10.29
2022-12-04T10:57:43.559Z,10.36
2022-12-04T11:00:32.853Z,10.37
2022-12-04T11:03:10.876Z,10.26
2022-12-04T11:05:45.701Z,10.29
2022-12-04T11:08:26.263Z,10.04
2022-12-04T11:11:15.317Z,10.28
2022-12-04T11:13:43.163Z,10.28
2022-12-04T11:16:35.381Z,10.40
2022-12-04T11:19:03.773Z,10.46
2022-12-04T11:21:33.935Z,10.34
2022-12-04T11:24:01.780Z,10.48
2022-12-04T11:26:35.878Z,10.54
2022-12-04T11:29:06.444Z,10.55
2022-12-04T11:31:34.630Z,10.33
2022-12-04T11:34:07.728Z,10.44
2022-12-04T11:36:40.658Z,10.57
2022-12-04T11:39:11.119Z,10.57
2022-12-04T11:41:39.350Z,10.57
2022-12-04T11:44:20.704Z,10.53
2022-12-04T11:46:53.974Z,10.69
2022-12-04T11:49:23.786Z,11.08
2022-12-04T11:52:08.183Z,11.40
2022-12-04T11:55:01.222Z,11.35
2022-12-04T11:57:43.206Z,11.02
2022-12-04T12:00:16.624Z,10.75
2022-12-04T12:03:05.241Z,10.57
2022-12-04T12:06:00.475Z,10.62
2022-12-04T12:08:43.165Z,10.92
2022-12-04T12:11:25.228Z,11.31
2022-12-04T12:14:05.366Z,11.34
2022-12-04T12:17:23.941Z,11.05
2022-12-04T12:20:15.517Z,11.17
2022-12-04T12:22:46.795Z,11.33
2022-12-04T12:25:20.947Z,11.39
2022-12-04T12:28:16.508Z,10.95
2022-12-04T12:31:06.366Z,11.03
2022-12-04T12:33:52.349Z,10.90
2022-12-04T12:36:24.494Z,11.02
2022-12-04T12:39:03.642Z,10.87
2022-12-04T12:41:38.131Z,11.12
2022-12-04T12:44:14.912Z,11.12
2022-12-04T12:46:51.610Z,11.13
2022-12-04T12:49:35.047Z,11.22
2022-12-04T12:52:13.111Z,11.36
2022-12-04T12:54:52.126Z,11.35
2022-12-04T12:57:37.342Z,11.39
2022-12-04T13:00:15.094Z,11.60
2022-12-04T13:03:03.712Z,11.33
2022-12-04T13:05:37.882Z,11.43
2022-12-04T13:08:13.966Z,11.17
2022-12-04T13:10:54.238Z,11.26
2022-12-04T13:13:28.600Z,11.35
2022-12-04T13:16:05.625Z,11.37
2022-12-04T13:18:44.151Z,11.42
2022-12-04T13:21:29.735Z,11.52
2022-12-04T13:24:21.023Z,11.35
2022-12-04T13:27:09.034Z,11.77
2022-12-04T13:30:01.963Z,11.79
2022-12-04T13:32:51.045Z,11.69
2022-12-04T13:35:24.579Z,11.49
2022-12-04T13:38:23.215Z,11.29
2022-12-04T13:41:01.925Z,11.35
2022-12-04T13:43:36.715Z,11.34
2022-12-04T13:46:07.536Z,11.16
2022-12-04T13:48:39.931Z,11.18
2022-12-04T13:51:22.445Z,11.05
2022-12-04T13:54:02.459Z,11.12
2022-12-04T13:56:31.259Z,11.00
2022-12-04T13:59:04.969Z,11.03
2022-12-04T14:01:41.532Z,11.02
2022-12-04T14:04:28.138Z,10.96
2022-12-04T14:07:00.017Z,11.16
2022-12-04T14:09:49.650Z,11.36
2022-12-04T14:12:18.887Z,11.37
2022-12-04T14:14:55.749Z,11.46
2022-12-04T14:17:33.767Z,11.29
2022-12-04T14:20:10.275Z,11.19
2022-12-04T14:22:44.057Z,11.12
2022-12-04T14:25:14.539Z,11.36
2022-12-04T14:27:42.343Z,11.58
2022-12-04T14:30:39.365Z,11.73
2022-12-04T14:33:19.148Z,11.53
2022-12-04T14:36:11.889Z,11.43
2022-12-04T14:38:40.419Z,11.18
2022-12-04T14:41:08.119Z,11.21
2022-12-04T14:43:40.344Z,11.15
2022-12-04T14:46:42.649Z,11.14
2022-12-04T14:49:47.641Z,11.26
2022-12-04T14:52:31.898Z,11.17
2022-12-04T14:55:01.324Z,11.16
2022-12-04T14:57:44.395Z,11.29
2022-12-04T15:00:22.762Z,11.19
2022-12-04T15:02:54.396Z,11.37
2022-12-04T15:05:29.394Z,11.45
2022-12-04T15:08:02.928Z,11.26
2022-12-04T15:10:50.369Z,11.39
2022-12-04T15:13:27.952Z,11.19
2022-12-04T15:15:56.565Z,11.29
2022-12-04T15:18:24.619Z,11.39
2022-12-04T15:20:56.095Z,11.36
2022-12-04T15:23:31.216Z,11.26
2022-12-04T15:26:02.654Z,11.28
2022-12-04T15:28:42.629Z,10.99
2022-12-04T15:31:16.227Z,10.77
2022-12-04T15:33:46.572Z,10.98
2022-12-04T15:36:29.225Z,10.95
2022-12-04T15:38:56.960Z,10.75
2022-12-04T15:41:35.498Z,10.73
2022-12-04T15:44:21.731Z,10.84
2022-12-04T15:46:49.975Z,10.70
2022-12-04T15:49:28.475Z,10.68
2022-12-04T15:52:14.898Z,10.64
2022-12-04T15:55:02.595Z,10.76
2022-12-04T15:57:37.475Z,10.78
2022-12-04T16:00:27.030Z,10.85
2022-12-04T16:02:55.334Z,10.79
2022-12-04T16:05:25.930Z,10.92
2022-12-04T16:07:57.166Z,10.98
2022-12-04T16:10:34.037Z,10.89
2022-12-04T16:13:04.899Z,10.75
2022-12-04T16:15:41.629Z,10.87
2022-12-04T16:18:14.045Z,10.79
2022-12-04T16:20:41.783Z,10.84
2022-12-04T16:23:10.340Z,10.87
2022-12-04T16:25:38.446Z,10.87
2022-12-04T16:28:06.623Z,10.88
2022-12-04T16:30:35.820Z,10.80
2022-12-04T16:33:04.390Z,10.89
2022-12-04T16:35:31.934Z,10.76
2022-12-04T16:37:59.939Z,10.70
2022-12-04T16:40:27.545Z,10.73
2022-12-04T16:42:55.482Z,10.76
2022-12-04T16:45:31.634Z,10.74
2022-12-04T16:47:59.973Z,10.71
2022-12-04T16:50:28.441Z,10.72
2022-12-04T16:52:56.894Z,10.75
2022-12-04T16:55:36.947Z,10.67
2022-12-04T16:58:06.648Z,10.76
2022-12-04T17:00:34.759Z,10.76
2022-12-04T17:03:04.482Z,10.58
2022-12-04T17:05:35.800Z,10.55
2022-12-04T17:08:03.731Z,10.61
2022-12-04T17:10:32.374Z,10.45
2022-12-04T17:12:59.941Z,10.47
2022-12-04T17:15:27.527Z,10.41
2022-12-04T17:17:55.565Z,10.52
2022-12-04T17:20:23.623Z,10.44
2022-12-04T17:22:51.663Z,10.52
2022-12-04T17:25:19.304Z,10.44
2022-12-04T17:27:46.939Z,10.45
2022-12-04T17:30:15.795Z,10.39
2022-12-04T17:32:43.787Z,10.26
2022-12-04T17:35:13.344Z,10.20
2022-12-04T17:37:41.375Z,10.18
2022-12-04T17:40:10.756Z,10.28
2022-12-04T17:42:38.795Z,10.38
2022-12-04T17:45:07.379Z,10.46
2022-12-04T17:47:35.894Z,10.43
2022-12-04T17:50:06.534Z,10.44
2022-12-04T17:52:34.146Z,10.36
2022-12-04T17:55:02.108Z,10.38
2022-12-04T17:57:30.148Z,10.37
2022-12-04T17:59:58.061Z,10.32
2022-12-04T18:02:26.152Z,10.41
2022-12-04T18:04:55.392Z,10.20
2022-12-04T18:07:23.981Z,10.25
2022-12-04T18:09:52.298Z,10.23
2022-12-04T18:12:19.898Z,10.29
2022-12-04T18:14:47.410Z,10.34
2022-12-04T18:17:17.571Z,10.37
2022-12-04T18:19:45.660Z,10.35
2022-12-04T18:22:13.229Z,10.12
2022-12-04T18:24:40.919Z,10.10
2022-12-04T18:27:09.025Z,10.18
2022-12-04T18:29:36.607Z,10.28
2022-12-04T18:32:04.397Z,10.28
2022-12-04T18:34:32.325Z,10.20
2022-12-04T18:36:59.876Z,10.27
2022-12-04T18:39:27.928Z,10.11
2022-12-04T18:41:56.959Z,10.01
2022-12-04T18:44:26.060Z,9.96
2022-12-04T18:46:54.041Z,9.99
2022-12-04T18:49:22.031Z,9.96
2022-12-04T18:51:50.499Z,9.94
2022-12-04T18:54:21.970Z,9.91
2022-12-04T18:56:50.432Z,10.03
2022-12-04T18:59:24.419Z,9.98
2022-12-04T19:01:53.825Z,9.93
2022-12-04T19:04:23.609Z,10.00
2022-12-04T19:06:53.654Z,10.03
2022-12-04T19:09:47.081Z,10.07
2022-12-04T19:12:13.609Z,10.13
2022-12-04T19:14:41.190Z,10.17
2022-12-04T19:17:09.629Z,10.05
2022-12-04T19:19:37.254Z,10.03
2022-12-04T19:22:05.311Z,10.13
2022-12-04T19:24:32.935Z,10.13
2022-12-04T19:27:01.906Z,10.19
2022-12-04T19:29:29.889Z,10.20
2022-12-04T19:31:59.551Z,10.22
2022-12-04T19:34:27.715Z,10.27
2022-12-04T19:36:55.496Z,10.35
2022-12-04T19:39:23.203Z,10.09
2022-12-04T19:41:51.130Z,10.17
2022-12-04T19:47:07.174Z,10.10
2022-12-04T19:49:34.848Z,10.21
2022-12-04T19:52:02.609Z,10.29
2022-12-04T19:54:30.827Z,10.29
2022-12-04T19:56:58.443Z,10.30
2022-12-04T19:59:27.736Z,10.28
2022-12-04T20:01:57.076Z,10.17
2022-12-04T20:04:24.692Z,10.09
2022-12-04T20:06:53.218Z,10.23
2022-12-04T20:09:22.541Z,10.02
2022-12-04T20:11:50.153Z,9.90
2022-12-04T20:14:17.933Z,10.02
2022-12-04T20:16:46.393Z,9.95
2022-12-04T20:19:16.773Z,9.99
2022-12-04T20:21:45.471Z,9.83
2022-12-04T20:24:16.226Z,9.76
2022-12-04T20:26:45.539Z,9.88
2022-12-04T20:29:15.877Z,9.88
2022-12-04T20:31:45.328Z,9.90
2022-12-04T20:34:18.434Z,10.20
2022-12-04T20:36:47.908Z,10.25
2022-12-04T20:39:17.904Z,10.18
2022-12-04T20:41:46.428Z,10.16
2022-12-04T20:44:16.140Z,10.14
2022-12-04T20:46:45.009Z,10.21
2022-12-04T20:49:21.178Z,9.97
2022-12-04T20:51:51.955Z,9.86
2022-12-04T20:54:22.071Z,9.92
2022-12-04T20:56:52.816Z,10.10
2022-12-04T20:59:22.391Z,10.11
2022-12-04T21:01:51.519Z,10.22
2022-12-04T21:04:19.706Z,10.17
2022-12-04T21:06:47.387Z,10.16
2022-12-04T21:09:20.637Z,10.16
2022-12-04T21:11:56.141Z,10.14
2022-12-04T21:14:45.469Z,10.27
2022-12-04T21:17:18.791Z,10.20
2022-12-04T21:19:49.260Z,10.00
2022-12-04T21:22:18.191Z,10.07
2022-12-04T21:24:46.242Z,10.08
2022-12-04T21:27:19.180Z,10.22
2022-12-04T21:29:49.234Z,10.34
2022-12-04T21:32:18.346Z,10.52
2022-12-04T21:34:45.933Z,10.41
2022-12-04T21:37:13.685Z,10.47
2022-12-04T21:39:42.825Z,10.40
2022-12-04T21:42:39.696Z,10.38
2022-12-04T21:45:08.265Z,10.27
2022-12-04T21:47:37.333Z,10.14
2022-12-04T21:50:06.263Z,10.02
2022-12-04T21:52:33.831Z,10.05
2022-12-04T21:55:01.443Z,10.10
2022-12-04T21:57:29.474Z,10.22
2022-12-04T21:59:57.396Z,10.40
2022-12-04T22:02:25.749Z,10.27
2022-12-04T22:04:53.383Z,10.21
2022-12-04T22:07:21.053Z,10.16
2022-12-04T22:09:48.646Z,10.13
2022-12-04T22:12:47.926Z,10.13
2022-12-04T22:15:05.839Z,10.22
2022-12-04T22:17:33.915Z,10.23
2022-12-04T22:20:02.126Z,10.28
2022-12-04T22:22:29.664Z,10.20
2022-12-04T22:24:59.379Z,10.23
2022-12-04T22:27:29.845Z,10.14
2022-12-04T22:29:57.962Z,10.04
2022-12-04T22:32:25.582Z,10.08
2022-12-04T22:34:53.105Z,10.07
2022-12-04T22:37:21.173Z,10.11
2022-12-04T22:39:48.643Z,10.15
2022-12-04T22:42:16.250Z,10.09
2022-12-04T22:44:43.742Z,9.98
2022-12-04T22:47:11.301Z,10.02
2022-12-04T22:49:38.861Z,10.09
2022-12-04T22:52:06.834Z,10.24
2022-12-04T22:54:34.525Z,10.26
2022-12-04T22:57:02.359Z,10.08
2022-12-04T22:59:30.497Z,9.97
2022-12-04T23:02:00.216Z,10.05
2022-12-04T23:04:28.316Z,10.13
2022-12-04T23:06:59.760Z,10.09
2022-12-04T23:09:28.312Z,10.02
2022-12-04T23:11:56.720Z,9.99
2022-12-04T23:14:25.960Z,10.02
2022-12-04T23:17:00.997Z,9.96
2022-12-04T23:19:35.945Z,10.00
2022-12-04T23:22:04.132Z,10.03
2022-12-04T23:24:33.376Z,10.09
2022-12-04T23:27:03.446Z,10.06
2022-12-04T23:32:19.026Z,10.30
2022-12-04T23:34:47.077Z,10.30
2022-12-04T23:37:14.871Z,10.19
2022-12-04T23:39:42.307Z,10.27
2022-12-04T23:42:09.827Z,10.17
2022-12-04T23:44:37.438Z,10.13
2022-12-04T23:47:05.695Z,10.06
2022-12-04T23:49:33.674Z,10.02
2022-12-04T23:52:01.292Z,9.89
2022-12-04T23:54:34.904Z,9.87
2022-12-04T23:57:02.446Z,9.86
2022-12-04T23:59:30.054Z,9.91
